N1CU KLZU-KLOT
Flight info
| Callsign | N1CU |
|---|---|
| Flight time | 1h 24m |
| Altitude | 38000 |
| Route | NOONE HCH |
| Aircraft | CL60/M-SBDE1E2E3FGHIJ1J4J5J7M3RWXYZ/LB1V1D1 |
Departure
| Time | 2026-05-08 00:05 |
|---|---|
| Airport | Gwinnett County Briscoe Field (KLZU) |
Arrival
| Time | 2026-05-08 01:29 |
|---|---|
| Airport | Lewis University Airport (KLOT) |
| Time | Latitude | Longitude | Altitude | Speed | Heading |
|---|---|---|---|---|---|
| 2026-05-07 23:40 | 33.97406 | -83.96735 | 1057 ft | 0 kts | 244° |
| 2026-05-07 23:57 | 33.97414 | -83.96764 | 1057 ft | 6 kts | 352° |
| 2026-05-07 23:57 | 33.97443 | -83.96712 | 1055 ft | 10 kts | 65° |
| 2026-05-07 23:57 | 33.97479 | -83.96631 | 1053 ft | 10 kts | 63° |
| 2026-05-07 23:57 | 33.97499 | -83.96600 | 1052 ft | 0 kts | 19° |
| 2026-05-08 00:00 | 33.97505 | -83.96598 | 1052 ft | 1 kts | 3° |
| 2026-05-08 00:01 | 33.97534 | -83.96596 | 1052 ft | 6 kts | 36° |
| 2026-05-08 00:01 | 33.97568 | -83.96525 | 1050 ft | 13 kts | 64° |
| 2026-05-08 00:01 | 33.97619 | -83.96401 | 1045 ft | 18 kts | 64° |
| 2026-05-08 00:01 | 33.97687 | -83.96242 | 1042 ft | 23 kts | 62° |
| 2026-05-08 00:02 | 33.97767 | -83.96049 | 1036 ft | 25 kts | 64° |
| 2026-05-08 00:02 | 33.97844 | -83.95858 | 1032 ft | 22 kts | 65° |
| 2026-05-08 00:02 | 33.97912 | -83.95689 | 1027 ft | 21 kts | 64° |
| 2026-05-08 00:02 | 33.97974 | -83.95541 | 1023 ft | 21 kts | 63° |
| 2026-05-08 00:03 | 33.98043 | -83.95371 | 1018 ft | 18 kts | 63° |
| 2026-05-08 00:03 | 33.98097 | -83.95312 | 1017 ft | 7 kts | 336° |
| 2026-05-08 00:03 | 33.98101 | -83.95314 | 1017 ft | 0 kts | 333° |
| 2026-05-08 00:04 | 33.98138 | -83.95336 | 1017 ft | 9 kts | 333° |
| 2026-05-08 00:04 | 33.98149 | -83.95412 | 1018 ft | 18 kts | 239° |
| 2026-05-08 00:04 | 33.97919 | -83.95972 | 1033 ft | 129 kts | 243° |
| 2026-05-08 00:04 | 33.97410 | -83.97176 | 1423 ft | 183 kts | 246° |
| 2026-05-08 00:05 | 33.96805 | -83.98569 | 2535 ft | 198 kts | 245° |
| 2026-05-08 00:05 | 33.96098 | -84.00062 | 3487 ft | 225 kts | 244° |
| 2026-05-08 00:05 | 33.95255 | -84.01730 | 4744 ft | 244 kts | 243° |
| 2026-05-08 00:05 | 33.94377 | -84.03435 | 6280 ft | 250 kts | 243° |
| 2026-05-08 00:06 | 33.93502 | -84.05095 | 7894 ft | 249 kts | 243° |
| 2026-05-08 00:06 | 33.92542 | -84.06890 | 9060 ft | 258 kts | 243° |
| 2026-05-08 00:06 | 33.91554 | -84.08714 | 9659 ft | 260 kts | 243° |
| 2026-05-08 00:06 | 33.90568 | -84.10527 | 9922 ft | 257 kts | 243° |
| 2026-05-08 00:07 | 33.89600 | -84.12302 | 9994 ft | 253 kts | 243° |
| 2026-05-08 00:07 | 33.88629 | -84.14069 | 10001 ft | 251 kts | 243° |
| 2026-05-08 00:07 | 33.87651 | -84.15852 | 9997 ft | 254 kts | 243° |
| 2026-05-08 00:07 | 33.86639 | -84.17716 | 10514 ft | 283 kts | 243° |
| 2026-05-08 00:08 | 33.85661 | -84.19720 | 11958 ft | 279 kts | 253° |
| 2026-05-08 00:08 | 33.85261 | -84.21883 | 13471 ft | 269 kts | 269° |
| 2026-05-08 00:08 | 33.85487 | -84.24049 | 14844 ft | 267 kts | 284° |
| 2026-05-08 00:08 | 33.86306 | -84.26024 | 15999 ft | 277 kts | 300° |
| 2026-05-08 00:09 | 33.87762 | -84.27627 | 17084 ft | 298 kts | 319° |
| 2026-05-08 00:09 | 33.89759 | -84.28552 | 18062 ft | 318 kts | 330° |
| 2026-05-08 00:09 | 33.91900 | -84.29316 | 18919 ft | 326 kts | 330° |
| 2026-05-08 00:09 | 33.94064 | -84.30090 | 19852 ft | 330 kts | 331° |
| 2026-05-08 00:10 | 33.96285 | -84.30886 | 20762 ft | 333 kts | 331° |
| 2026-05-08 00:10 | 33.98527 | -84.31693 | 21548 ft | 339 kts | 330° |
| 2026-05-08 00:10 | 34.00799 | -84.32510 | 22346 ft | 344 kts | 330° |
| 2026-05-08 00:10 | 34.03081 | -84.33332 | 23085 ft | 349 kts | 330° |
| 2026-05-08 00:11 | 34.05456 | -84.34188 | 23860 ft | 355 kts | 330° |
| 2026-05-08 00:11 | 34.07805 | -84.35033 | 24659 ft | 358 kts | 330° |
| 2026-05-08 00:11 | 34.10217 | -84.35903 | 25434 ft | 362 kts | 330° |
| 2026-05-08 00:11 | 34.12630 | -84.36775 | 26113 ft | 367 kts | 330° |
| 2026-05-08 00:12 | 34.15105 | -84.37669 | 26823 ft | 370 kts | 330° |
| 2026-05-08 00:12 | 34.17594 | -84.38570 | 27433 ft | 375 kts | 329° |
| 2026-05-08 00:12 | 34.20105 | -84.39477 | 28127 ft | 377 kts | 329° |
| 2026-05-08 00:12 | 34.22621 | -84.40386 | 28779 ft | 379 kts | 329° |
| 2026-05-08 00:13 | 34.25149 | -84.41302 | 29376 ft | 382 kts | 329° |
| 2026-05-08 00:13 | 34.27728 | -84.42239 | 29875 ft | 387 kts | 329° |
| 2026-05-08 00:13 | 34.30359 | -84.43195 | 30396 ft | 391 kts | 328° |
| 2026-05-08 00:13 | 34.32967 | -84.44144 | 30807 ft | 397 kts | 329° |
| 2026-05-08 00:14 | 34.35645 | -84.45115 | 31402 ft | 397 kts | 328° |
| 2026-05-08 00:14 | 34.38308 | -84.46082 | 31862 ft | 400 kts | 329° |
| 2026-05-08 00:14 | 34.40993 | -84.47059 | 32334 ft | 402 kts | 329° |
| 2026-05-08 00:14 | 34.43685 | -84.48038 | 32725 ft | 406 kts | 328° |
| 2026-05-08 00:15 | 34.46431 | -84.49043 | 33004 ft | 411 kts | 328° |
| 2026-05-08 00:15 | 34.49197 | -84.50050 | 33420 ft | 414 kts | 328° |
| 2026-05-08 00:15 | 34.51961 | -84.51060 | 33715 ft | 418 kts | 328° |
| 2026-05-08 00:15 | 34.54781 | -84.52088 | 34200 ft | 417 kts | 328° |
| 2026-05-08 00:16 | 34.57532 | -84.53083 | 34902 ft | 410 kts | 328° |
| 2026-05-08 00:16 | 34.60237 | -84.54063 | 35566 ft | 404 kts | 327° |
| 2026-05-08 00:16 | 34.62926 | -84.55042 | 36137 ft | 400 kts | 328° |
| 2026-05-08 00:16 | 34.65608 | -84.56016 | 36730 ft | 395 kts | 327° |
| 2026-05-08 00:17 | 34.68240 | -84.56983 | 37042 ft | 396 kts | 327° |
| 2026-05-08 00:17 | 34.70863 | -84.57943 | 37516 ft | 393 kts | 328° |
| 2026-05-08 00:17 | 34.73480 | -84.58901 | 37933 ft | 391 kts | 327° |
| 2026-05-08 00:17 | 34.76128 | -84.59880 | 37999 ft | 396 kts | 327° |
| 2026-05-08 00:18 | 34.81457 | -84.61848 | 37996 ft | 401 kts | 328° |
| 2026-05-08 00:18 | 34.86790 | -84.63806 | 37994 ft | 398 kts | 327° |
| 2026-05-08 00:19 | 34.92193 | -84.65811 | 37996 ft | 411 kts | 327° |
| 2026-05-08 00:19 | 34.97757 | -84.67875 | 37999 ft | 422 kts | 328° |
| 2026-05-08 00:20 | 35.03460 | -84.69988 | 37992 ft | 431 kts | 328° |
| 2026-05-08 00:20 | 35.09224 | -84.72117 | 37993 ft | 431 kts | 327° |
| 2026-05-08 00:21 | 35.15016 | -84.74259 | 37997 ft | 431 kts | 328° |
| 2026-05-08 00:21 | 35.20792 | -84.76399 | 37998 ft | 430 kts | 328° |
| 2026-05-08 00:22 | 35.26528 | -84.78529 | 38004 ft | 430 kts | 327° |
| 2026-05-08 00:22 | 35.32240 | -84.80652 | 37998 ft | 427 kts | 328° |
| 2026-05-08 00:23 | 35.37977 | -84.82791 | 38006 ft | 427 kts | 328° |
| 2026-05-08 00:23 | 35.43684 | -84.84921 | 38009 ft | 427 kts | 327° |
| 2026-05-08 00:24 | 35.49372 | -84.87048 | 38009 ft | 426 kts | 327° |
| 2026-05-08 00:24 | 35.55055 | -84.89176 | 38016 ft | 425 kts | 327° |
| 2026-05-08 00:25 | 35.60717 | -84.91302 | 38019 ft | 426 kts | 327° |
| 2026-05-08 00:25 | 35.66389 | -84.93434 | 38020 ft | 426 kts | 327° |
| 2026-05-08 00:26 | 35.72093 | -84.95580 | 38024 ft | 425 kts | 327° |
| 2026-05-08 00:26 | 35.77727 | -84.97709 | 38026 ft | 423 kts | 326° |
| 2026-05-08 00:27 | 35.83230 | -85.00161 | 38026 ft | 419 kts | 323° |
| 2026-05-08 00:27 | 35.88714 | -85.02670 | 38042 ft | 420 kts | 324° |
| 2026-05-08 00:28 | 35.94208 | -85.05181 | 38053 ft | 418 kts | 324° |
| 2026-05-08 00:28 | 35.99678 | -85.07684 | 38051 ft | 417 kts | 323° |
| 2026-05-08 00:29 | 36.05120 | -85.10180 | 38041 ft | 417 kts | 323° |
| 2026-05-08 00:29 | 36.10578 | -85.12687 | 38029 ft | 417 kts | 324° |
| 2026-05-08 00:30 | 36.16041 | -85.15198 | 38031 ft | 417 kts | 324° |
| 2026-05-08 00:30 | 36.21506 | -85.17714 | 38032 ft | 417 kts | 323° |
| 2026-05-08 00:31 | 36.26962 | -85.20229 | 38030 ft | 417 kts | 323° |
| 2026-05-08 00:31 | 36.32400 | -85.22739 | 38030 ft | 416 kts | 323° |
| 2026-05-08 00:32 | 36.37846 | -85.25256 | 38030 ft | 415 kts | 323° |
| 2026-05-08 00:32 | 36.43260 | -85.27761 | 38033 ft | 415 kts | 323° |
| 2026-05-08 00:33 | 36.48685 | -85.30276 | 38029 ft | 414 kts | 323° |
| 2026-05-08 00:33 | 36.54093 | -85.32787 | 38031 ft | 415 kts | 323° |
| 2026-05-08 00:34 | 36.59486 | -85.35296 | 38032 ft | 415 kts | 323° |
| 2026-05-08 00:34 | 36.64924 | -85.37827 | 38031 ft | 415 kts | 323° |
| 2026-05-08 00:35 | 36.70313 | -85.40341 | 38029 ft | 415 kts | 323° |
| 2026-05-08 00:35 | 36.75762 | -85.42887 | 38034 ft | 415 kts | 323° |
| 2026-05-08 00:36 | 36.81175 | -85.45418 | 38034 ft | 415 kts | 323° |
| 2026-05-08 00:36 | 36.86582 | -85.47951 | 38039 ft | 415 kts | 323° |
| 2026-05-08 00:37 | 36.91998 | -85.50491 | 38038 ft | 414 kts | 323° |
| 2026-05-08 00:38 | 37.00086 | -85.54293 | 38035 ft | 413 kts | 323° |
| 2026-05-08 00:38 | 37.05483 | -85.56835 | 38038 ft | 414 kts | 323° |
| 2026-05-08 00:39 | 37.10872 | -85.59379 | 38036 ft | 415 kts | 323° |
| 2026-05-08 00:39 | 37.16333 | -85.61961 | 38037 ft | 417 kts | 323° |
| 2026-05-08 00:40 | 37.21751 | -85.64524 | 38035 ft | 417 kts | 323° |
| 2026-05-08 00:40 | 37.27174 | -85.67092 | 38038 ft | 416 kts | 323° |
| 2026-05-08 00:41 | 37.32596 | -85.69665 | 38037 ft | 415 kts | 323° |
| 2026-05-08 00:41 | 37.38035 | -85.72250 | 38041 ft | 415 kts | 323° |
| 2026-05-08 00:42 | 37.43463 | -85.74835 | 38037 ft | 416 kts | 323° |
| 2026-05-08 00:42 | 37.48896 | -85.77427 | 38033 ft | 417 kts | 323° |
| 2026-05-08 00:43 | 37.54321 | -85.80018 | 38036 ft | 418 kts | 323° |
| 2026-05-08 00:43 | 37.59771 | -85.82625 | 38031 ft | 418 kts | 324° |
| 2026-05-08 00:44 | 37.65228 | -85.85239 | 38044 ft | 418 kts | 324° |
| 2026-05-08 00:44 | 37.70660 | -85.87846 | 38037 ft | 418 kts | 324° |
| 2026-05-08 00:45 | 37.76120 | -85.90472 | 38038 ft | 420 kts | 324° |
| 2026-05-08 00:45 | 37.81611 | -85.93115 | 38037 ft | 420 kts | 324° |
| 2026-05-08 00:46 | 37.87101 | -85.95760 | 38033 ft | 420 kts | 324° |
| 2026-05-08 00:46 | 37.92555 | -85.98393 | 38033 ft | 420 kts | 324° |
| 2026-05-08 00:47 | 37.98017 | -86.01035 | 38032 ft | 420 kts | 324° |
| 2026-05-08 00:47 | 38.03516 | -86.03700 | 38035 ft | 421 kts | 324° |
| 2026-05-08 00:48 | 38.09005 | -86.06364 | 38029 ft | 423 kts | 325° |
| 2026-05-08 00:48 | 38.14492 | -86.09033 | 38029 ft | 423 kts | 325° |
| 2026-05-08 00:49 | 38.19996 | -86.11712 | 38029 ft | 422 kts | 325° |
| 2026-05-08 00:49 | 38.25497 | -86.14392 | 38029 ft | 422 kts | 325° |
| 2026-05-08 00:50 | 38.31001 | -86.17082 | 38019 ft | 423 kts | 325° |
| 2026-05-08 00:50 | 38.36496 | -86.19770 | 38022 ft | 423 kts | 325° |
| 2026-05-08 00:51 | 38.42016 | -86.22475 | 38022 ft | 424 kts | 325° |
| 2026-05-08 00:51 | 38.47527 | -86.25180 | 38024 ft | 424 kts | 325° |
| 2026-05-08 00:52 | 38.53020 | -86.27879 | 38021 ft | 423 kts | 325° |
| 2026-05-08 00:52 | 38.58540 | -86.30598 | 38022 ft | 424 kts | 325° |
| 2026-05-08 00:53 | 38.64052 | -86.33318 | 38022 ft | 425 kts | 325° |
| 2026-05-08 00:53 | 38.69590 | -86.36054 | 38024 ft | 425 kts | 325° |
| 2026-05-08 00:54 | 38.75117 | -86.38790 | 38030 ft | 426 kts | 325° |
| 2026-05-08 00:54 | 38.80632 | -86.41524 | 38023 ft | 425 kts | 325° |
| 2026-05-08 00:55 | 38.86191 | -86.44284 | 38028 ft | 425 kts | 325° |
| 2026-05-08 00:55 | 38.91692 | -86.47022 | 38019 ft | 427 kts | 325° |
| 2026-05-08 00:56 | 38.97258 | -86.49796 | 38023 ft | 427 kts | 325° |
| 2026-05-08 00:56 | 39.02836 | -86.52581 | 38024 ft | 428 kts | 326° |
| 2026-05-08 00:57 | 39.08384 | -86.55354 | 38023 ft | 428 kts | 326° |
| 2026-05-08 00:57 | 39.13941 | -86.58137 | 38018 ft | 428 kts | 326° |
| 2026-05-08 00:58 | 39.19513 | -86.60933 | 38020 ft | 429 kts | 326° |
| 2026-05-08 00:58 | 39.25128 | -86.63756 | 38017 ft | 430 kts | 326° |
| 2026-05-08 00:59 | 39.30736 | -86.66580 | 38004 ft | 431 kts | 326° |
| 2026-05-08 00:59 | 39.36303 | -86.69387 | 38004 ft | 430 kts | 326° |
| 2026-05-08 01:00 | 39.41911 | -86.72219 | 38003 ft | 429 kts | 326° |
| 2026-05-08 01:00 | 39.47478 | -86.75038 | 37997 ft | 430 kts | 326° |
| 2026-05-08 01:01 | 39.53038 | -86.77856 | 37997 ft | 431 kts | 326° |
| 2026-05-08 01:01 | 39.58624 | -86.80694 | 38004 ft | 431 kts | 327° |
| 2026-05-08 01:02 | 39.64238 | -86.83549 | 38006 ft | 431 kts | 327° |
| 2026-05-08 01:02 | 39.69800 | -86.86385 | 38001 ft | 431 kts | 327° |
| 2026-05-08 01:03 | 39.75399 | -86.89243 | 37991 ft | 431 kts | 327° |
| 2026-05-08 01:03 | 39.80983 | -86.92099 | 37987 ft | 431 kts | 327° |
| 2026-05-08 01:04 | 39.86570 | -86.94962 | 37960 ft | 433 kts | 327° |
| 2026-05-08 01:04 | 39.89443 | -86.96442 | 37535 ft | 440 kts | 327° |
| 2026-05-08 01:04 | 39.92249 | -86.97884 | 36997 ft | 439 kts | 327° |
| 2026-05-08 01:04 | 39.95105 | -86.99348 | 36445 ft | 437 kts | 327° |
| 2026-05-08 01:05 | 39.97916 | -87.00793 | 35872 ft | 436 kts | 328° |
| 2026-05-08 01:05 | 40.00755 | -87.02254 | 35353 ft | 437 kts | 328° |
| 2026-05-08 01:05 | 40.03572 | -87.03707 | 34721 ft | 437 kts | 328° |
| 2026-05-08 01:05 | 40.06381 | -87.05154 | 34156 ft | 436 kts | 329° |
| 2026-05-08 01:06 | 40.09234 | -87.06628 | 33477 ft | 435 kts | 329° |
| 2026-05-08 01:06 | 40.12014 | -87.08063 | 32969 ft | 435 kts | 329° |
| 2026-05-08 01:06 | 40.14851 | -87.09528 | 32381 ft | 430 kts | 329° |
| 2026-05-08 01:06 | 40.17592 | -87.10943 | 31820 ft | 426 kts | 329° |
| 2026-05-08 01:07 | 40.20351 | -87.12370 | 31251 ft | 421 kts | 329° |
| 2026-05-08 01:07 | 40.23050 | -87.13767 | 30704 ft | 416 kts | 329° |
| 2026-05-08 01:07 | 40.25713 | -87.15147 | 30151 ft | 412 kts | 329° |
| 2026-05-08 01:07 | 40.28381 | -87.16532 | 29606 ft | 407 kts | 329° |
| 2026-05-08 01:08 | 40.31007 | -87.17896 | 29056 ft | 403 kts | 330° |
| 2026-05-08 01:08 | 40.33592 | -87.19241 | 28537 ft | 400 kts | 329° |
| 2026-05-08 01:08 | 40.36155 | -87.20575 | 28010 ft | 396 kts | 329° |
| 2026-05-08 01:08 | 40.38710 | -87.21906 | 27478 ft | 393 kts | 329° |
| 2026-05-08 01:09 | 40.41237 | -87.23224 | 26963 ft | 388 kts | 330° |
| 2026-05-08 01:09 | 40.43746 | -87.24533 | 26436 ft | 384 kts | 330° |
| 2026-05-08 01:09 | 40.46221 | -87.25826 | 25928 ft | 380 kts | 330° |
| 2026-05-08 01:09 | 40.48636 | -87.27087 | 25436 ft | 376 kts | 330° |
| 2026-05-08 01:10 | 40.51065 | -87.28359 | 24933 ft | 372 kts | 330° |
| 2026-05-08 01:10 | 40.53450 | -87.29608 | 24449 ft | 368 kts | 330° |
| 2026-05-08 01:10 | 40.55800 | -87.30840 | 23958 ft | 365 kts | 330° |
| 2026-05-08 01:10 | 40.58148 | -87.32072 | 23487 ft | 362 kts | 331° |
| 2026-05-08 01:11 | 40.60484 | -87.33299 | 22988 ft | 359 kts | 331° |
| 2026-05-08 01:11 | 40.62797 | -87.34515 | 22519 ft | 355 kts | 331° |
| 2026-05-08 01:11 | 40.65070 | -87.35711 | 22052 ft | 354 kts | 331° |
| 2026-05-08 01:11 | 40.67332 | -87.36902 | 21578 ft | 351 kts | 332° |
| 2026-05-08 01:12 | 40.69595 | -87.38094 | 21120 ft | 350 kts | 332° |
| 2026-05-08 01:12 | 40.71880 | -87.39300 | 20653 ft | 348 kts | 332° |
| 2026-05-08 01:12 | 40.74105 | -87.40474 | 20190 ft | 347 kts | 332° |
| 2026-05-08 01:12 | 40.76364 | -87.41666 | 19722 ft | 346 kts | 332° |
| 2026-05-08 01:13 | 40.78579 | -87.42837 | 19273 ft | 344 kts | 333° |
| 2026-05-08 01:13 | 40.80799 | -87.44011 | 18816 ft | 343 kts | 333° |
| 2026-05-08 01:13 | 40.82996 | -87.45171 | 18367 ft | 337 kts | 333° |
| 2026-05-08 01:13 | 40.85147 | -87.46310 | 17921 ft | 334 kts | 333° |
| 2026-05-08 01:14 | 40.87321 | -87.47461 | 17572 ft | 333 kts | 333° |
| 2026-05-08 01:14 | 40.89471 | -87.48602 | 17095 ft | 331 kts | 333° |
| 2026-05-08 01:14 | 40.91602 | -87.49732 | 16669 ft | 330 kts | 333° |
| 2026-05-08 01:14 | 40.93706 | -87.50849 | 16227 ft | 328 kts | 333° |
| 2026-05-08 01:15 | 40.95834 | -87.51980 | 15788 ft | 328 kts | 333° |
| 2026-05-08 01:15 | 40.97932 | -87.53095 | 15361 ft | 327 kts | 333° |
| 2026-05-08 01:15 | 41.00037 | -87.54215 | 14927 ft | 326 kts | 333° |
| 2026-05-08 01:15 | 41.02167 | -87.55349 | 14481 ft | 326 kts | 333° |
| 2026-05-08 01:16 | 41.04250 | -87.56459 | 14060 ft | 325 kts | 333° |
| 2026-05-08 01:16 | 41.06343 | -87.57574 | 13620 ft | 323 kts | 333° |
| 2026-05-08 01:16 | 41.08438 | -87.58691 | 13197 ft | 322 kts | 333° |
| 2026-05-08 01:16 | 41.10500 | -87.59791 | 12763 ft | 320 kts | 333° |
| 2026-05-08 01:17 | 41.12598 | -87.60912 | 12338 ft | 319 kts | 333° |
| 2026-05-08 01:17 | 41.14609 | -87.61983 | 11923 ft | 309 kts | 333° |
| 2026-05-08 01:17 | 41.16572 | -87.63030 | 11503 ft | 299 kts | 333° |
| 2026-05-08 01:17 | 41.18486 | -87.64050 | 11134 ft | 288 kts | 333° |
| 2026-05-08 01:18 | 41.20315 | -87.65027 | 10669 ft | 282 kts | 332° |
| 2026-05-08 01:18 | 41.22105 | -87.65984 | 10376 ft | 272 kts | 333° |
| 2026-05-08 01:18 | 41.23863 | -87.66926 | 9996 ft | 266 kts | 333° |
| 2026-05-08 01:18 | 41.25547 | -87.67828 | 9664 ft | 259 kts | 333° |
| 2026-05-08 01:19 | 41.27203 | -87.68717 | 9316 ft | 257 kts | 332° |
| 2026-05-08 01:19 | 41.28867 | -87.69614 | 8968 ft | 258 kts | 332° |
| 2026-05-08 01:19 | 41.30537 | -87.70513 | 8625 ft | 257 kts | 333° |
| 2026-05-08 01:19 | 41.32196 | -87.71407 | 8291 ft | 257 kts | 333° |
| 2026-05-08 01:20 | 41.33854 | -87.72300 | 7946 ft | 256 kts | 333° |
| 2026-05-08 01:20 | 41.35508 | -87.73191 | 7604 ft | 256 kts | 333° |
| 2026-05-08 01:20 | 41.37179 | -87.74091 | 7264 ft | 255 kts | 333° |
| 2026-05-08 01:20 | 41.38830 | -87.74982 | 6919 ft | 254 kts | 333° |
| 2026-05-08 01:21 | 41.40456 | -87.75858 | 6586 ft | 254 kts | 333° |
| 2026-05-08 01:21 | 41.42108 | -87.76750 | 6246 ft | 254 kts | 333° |
| 2026-05-08 01:21 | 41.43751 | -87.77638 | 5908 ft | 254 kts | 333° |
| 2026-05-08 01:21 | 41.45404 | -87.78529 | 5566 ft | 253 kts | 334° |
| 2026-05-08 01:22 | 41.47024 | -87.79404 | 5232 ft | 252 kts | 334° |
| 2026-05-08 01:22 | 41.48707 | -87.80154 | 4899 ft | 253 kts | 342° |
| 2026-05-08 01:22 | 41.50432 | -87.80662 | 4567 ft | 253 kts | 343° |
| 2026-05-08 01:22 | 41.52164 | -87.81171 | 4223 ft | 253 kts | 343° |
| 2026-05-08 01:23 | 41.53897 | -87.81682 | 3887 ft | 251 kts | 343° |
| 2026-05-08 01:23 | 41.55596 | -87.82184 | 3558 ft | 250 kts | 344° |
| 2026-05-08 01:23 | 41.57270 | -87.82678 | 3237 ft | 243 kts | 344° |
| 2026-05-08 01:23 | 41.58909 | -87.83173 | 2925 ft | 235 kts | 342° |
| 2026-05-08 01:24 | 41.60323 | -87.84104 | 2539 ft | 221 kts | 317° |
| 2026-05-08 01:24 | 41.61153 | -87.85661 | 2426 ft | 191 kts | 292° |
| 2026-05-08 01:24 | 41.61419 | -87.87318 | 2443 ft | 179 kts | 276° |
| 2026-05-08 01:24 | 41.61429 | -87.88947 | 2424 ft | 170 kts | 270° |
| 2026-05-08 01:25 | 41.61383 | -87.90495 | 2416 ft | 166 kts | 270° |
| 2026-05-08 01:25 | 41.61340 | -87.92040 | 2413 ft | 164 kts | 269° |
| 2026-05-08 01:25 | 41.61297 | -87.93575 | 2408 ft | 164 kts | 269° |
| 2026-05-08 01:25 | 41.61249 | -87.95108 | 2409 ft | 164 kts | 269° |
| 2026-05-08 01:26 | 41.61204 | -87.96616 | 2385 ft | 164 kts | 269° |
| 2026-05-08 01:26 | 41.61160 | -87.98145 | 2163 ft | 163 kts | 269° |
| 2026-05-08 01:26 | 41.61118 | -87.99571 | 2008 ft | 142 kts | 270° |
| 2026-05-08 01:26 | 41.61081 | -88.00845 | 1820 ft | 128 kts | 270° |
| 2026-05-08 01:27 | 41.61049 | -88.01975 | 1666 ft | 118 kts | 270° |
| 2026-05-08 01:27 | 41.61019 | -88.03035 | 1477 ft | 113 kts | 270° |
| 2026-05-08 01:27 | 41.60990 | -88.04100 | 1325 ft | 114 kts | 270° |
| 2026-05-08 01:27 | 41.60961 | -88.05150 | 1172 ft | 113 kts | 269° |
| 2026-05-08 01:28 | 41.60929 | -88.06216 | 1016 ft | 115 kts | 268° |
| 2026-05-08 01:28 | 41.60896 | -88.07287 | 837 ft | 115 kts | 268° |
| 2026-05-08 01:28 | 41.60865 | -88.08374 | 698 ft | 115 kts | 268° |
| 2026-05-08 01:28 | 41.60838 | -88.09313 | 670 ft | 76 kts | 267° |
| 2026-05-08 01:29 | 41.60818 | -88.09643 | 670 ft | 11 kts | 219° |
| 2026-05-08 01:29 | 41.60750 | -88.09667 | 671 ft | 9 kts | 191° |
| 2026-05-08 01:29 | 41.60746 | -88.09668 | 671 ft | 0 kts | 190° |
| 2026-05-08 01:29 | 41.60731 | -88.09663 | 672 ft | 2 kts | 148° |
| 2026-05-08 01:30 | 41.60720 | -88.09640 | 672 ft | 6 kts | 105° |
| 2026-05-08 01:30 | 41.60720 | -88.09541 | 672 ft | 13 kts | 90° |
| 2026-05-08 01:30 | 41.60724 | -88.09396 | 671 ft | 17 kts | 86° |
| 2026-05-08 01:30 | 41.60727 | -88.09241 | 671 ft | 16 kts | 90° |
| 2026-05-08 01:31 | 41.60677 | -88.09177 | 671 ft | 13 kts | 178° |
| 2026-05-08 01:31 | 41.60607 | -88.09171 | 672 ft | 5 kts | 176° |
| 2026-05-08 01:31 | 41.60557 | -88.09155 | 672 ft | 9 kts | 154° |
| 2026-05-08 01:31 | 41.60515 | -88.09148 | 672 ft | 6 kts | 185° |
| 2026-05-08 01:32 | 41.60509 | -88.09159 | 672 ft | 0 kts | 276° |